Time;durP1;ratioP1;P1;durP2;ratioP2;P2;SDS_P1;SDS_P2;PMS_P1;PMS_P2;Temp;Humidity;BMP_temperature;BMP_pressure;BME280_temperature;BME280_humidity;BME280_pressure;Samples;Min_cycle;Max_cycle;Signal;HPM_P1;HPM_P2
2022/03/21 00:01:26;;;;;;;16.77;10.95;;;;;;;3.74;40.69;102054.88;1672802;84;21135;-58
2022/03/21 00:03:54;;;;;;;15.45;9.68;;;;;;;2.80;42.41;102044.63;1672936;84;21660;-62
2022/03/21 00:06:22;;;;;;;15.68;9.63;;;;;;;3.00;42.33;102052.04;1673500;84;21034;-57
2022/03/21 00:08:50;;;;;;;16.05;9.65;;;;;;;3.71;41.66;102046.03;1681649;84;21481;-57
2022/03/21 00:11:20;;;;;;;16.60;10.82;;;;;;;3.43;41.84;102045.61;1678308;84;20911;-58
2022/03/21 00:13:51;;;;;;;16.77;11.15;;;;;;;4.38;40.73;102046.14;1676401;84;20955;-59
2022/03/21 00:16:17;;;;;;;17.75;11.95;;;;;;;3.89;40.89;102004.09;1675421;84;21156;-57
2022/03/21 00:18:46;;;;;;;14.05;8.95;;;;;;;4.14;40.51;102045.49;1673109;84;20983;-56
2022/03/21 00:21:15;;;;;;;17.87;11.00;;;;;;;4.16;40.36;102042.80;1683214;83;20988;-56
2022/03/21 00:23:42;;;;;;;16.90;10.82;;;;;;;5.11;39.13;102033.55;1682041;83;21039;-60
2022/03/21 00:26:11;;;;;;;18.02;9.38;;;;;;;5.43;38.61;102025.34;1677037;84;21323;-58
2022/03/21 00:28:39;;;;;;;20.90;11.78;;;;;;;4.21;40.34;102024.47;1675140;85;21465;-58
2022/03/21 00:31:08;;;;;;;20.17;12.23;;;;;;;4.01;40.78;102023.13;1672687;84;21129;-58
2022/03/21 00:33:35;;;;;;;19.05;11.12;;;;;;;3.99;40.68;102019.37;1661922;85;20995;-58
2022/03/21 00:36:07;;;;;;;17.85;10.32;;;;;;;4.15;40.67;102013.59;1671657;84;21016;-56
2022/03/21 00:38:35;;;;;;;16.70;10.28;;;;;;;4.03;40.84;102006.63;1672814;84;21598;-57
2022/03/21 00:41:04;;;;;;;16.07;8.28;;;;;;;4.41;40.48;102014.96;1671701;84;22465;-56
2022/03/21 00:43:31;;;;;;;25.45;15.23;;;;;;;4.50;40.23;102016.93;1670163;85;21055;-62
2022/03/21 00:46:00;;;;;;;25.57;15.40;;;;;;;4.54;39.69;102008.05;1670639;85;20999;-58
2022/03/21 00:48:28;;;;;;;25.92;14.23;;;;;;;4.06;39.61;102001.28;1672598;84;21047;-58
2022/03/21 00:50:57;;;;;;;27.30;15.80;;;;;;;3.81;39.75;101992.97;1673941;84;21117;-58
2022/03/21 00:53:24;;;;;;;23.40;14.68;;;;;;;3.86;39.59;101988.37;1671503;85;21255;-57
2022/03/21 00:55:52;;;;;;;26.15;14.70;;;;;;;4.18;39.14;101975.62;1671958;84;21066;-62
2022/03/21 00:58:20;;;;;;;24.35;13.03;;;;;;;4.00;39.22;101979.73;1674406;84;21109;-58
2022/03/21 01:00:47;;;;;;;21.55;13.72;;;;;;;3.82;39.34;101983.47;1671915;85;21035;-58
2022/03/21 01:03:15;;;;;;;24.55;14.50;;;;;;;3.81;39.43;101974.91;1673351;83;21575;-57
2022/03/21 01:05:44;;;;;;;21.87;13.10;;;;;;;3.76;39.57;101973.09;1691070;83;21567;-60
2022/03/21 01:08:12;;;;;;;27.32;14.85;;;;;;;3.52;39.82;101976.72;1690967;84;21134;-57
2022/03/21 01:10:39;;;;;;;24.90;14.53;;;;;;;3.17;40.29;101969.40;1698814;83;21531;-58
2022/03/21 01:13:07;;;;;;;20.55;13.03;;;;;;;3.09;40.51;101972.91;1698916;82;21157;-58
2022/03/21 01:15:35;;;;;;;26.23;14.05;;;;;;;3.14;40.75;101960.59;1688946;83;21029;-57
2022/03/21 01:18:05;;;;;;;22.85;13.60;;;;;;;3.47;40.46;101958.61;1690618;84;21099;-59
2022/03/21 01:20:35;;;;;;;24.50;13.95;;;;;;;3.31;40.58;101959.55;1690824;84;21380;-58
2022/03/21 01:23:03;;;;;;;26.23;14.35;;;;;;;3.36;40.21;101957.97;1667945;84;21518;-58
2022/03/21 01:25:31;;;;;;;21.33;13.18;;;;;;;3.11;40.51;101947.89;1675619;84;21132;-57
2022/03/21 01:27:58;;;;;;;23.10;13.95;;;;;;;3.10;40.61;101951.83;1675868;84;21017;-59
2022/03/21 01:30:25;;;;;;;23.83;13.85;;;;;;;2.97;40.60;101954.33;1676758;83;21283;-57
2022/03/21 01:32:53;;;;;;;21.27;12.40;;;;;;;2.99;40.64;101951.18;1677050;84;21566;-57
2022/03/21 01:35:21;;;;;;;28.50;12.95;;;;;;;3.05;40.60;101953.41;1675615;84;21038;-58
2022/03/21 01:37:48;;;;;;;21.52;12.28;;;;;;;2.92;40.70;101944.77;1676812;84;22532;-59
2022/03/21 01:40:16;;;;;;;22.93;12.00;;;;;;;2.95;40.74;101945.84;1675978;84;20953;-58
2022/03/21 01:42:46;;;;;;;19.52;11.63;;;;;;;3.00;40.72;101948.99;1676809;84;21344;-58
2022/03/21 01:45:14;;;;;;;18.67;11.12;;;;;;;2.90;40.86;101945.30;1676402;84;21020;-58
2022/03/21 01:47:41;;;;;;;20.40;11.97;;;;;;;2.61;41.42;101935.00;1676852;84;21072;-61
2022/03/21 01:50:11;;;;;;;20.35;11.83;;;;;;;2.69;41.42;101938.41;1676479;85;21159;-58
2022/03/21 01:52:38;;;;;;;22.17;12.07;;;;;;;2.15;42.11;101940.20;1674410;85;21065;-58
2022/03/21 01:57:53;;;;;;;19.42;12.28;;;;;;;1.78;42.70;101938.03;1668080;85;21605;-58
2022/03/21 02:00:22;;;;;;;21.52;12.37;;;;;;;1.78;42.97;101938.89;1676898;84;21022;-58
2022/03/21 02:02:51;;;;;;;19.77;11.18;;;;;;;1.87;42.93;101937.53;1676527;85;21027;-57
2022/03/21 02:05:19;;;;;;;22.95;11.30;;;;;;;1.84;42.90;101938.98;1676641;84;21033;-61
2022/03/21 02:07:47;;;;;;;21.82;11.05;;;;;;;1.72;43.21;101937.10;1676368;85;20965;-58
2022/03/21 02:10:16;;;;;;;19.05;10.70;;;;;;;1.86;43.14;101936.72;1677163;85;21056;-57
2022/03/21 02:12:44;;;;;;;18.90;10.88;;;;;;;1.49;43.68;101928.91;1676284;85;20985;-57
2022/03/21 02:15:12;;;;;;;20.40;12.03;;;;;;;1.50;43.76;101929.27;1676870;84;22500;-60
2022/03/21 02:17:41;;;;;;;20.57;12.00;;;;;;;1.45;43.80;101928.70;1676581;84;21084;-58
2022/03/21 02:20:10;;;;;;;20.50;10.85;;;;;;;1.57;43.62;101921.59;1675998;84;21559;-58
2022/03/21 02:22:54;;;;;;;21.68;11.93;;;;;;;1.46;43.83;101916.22;1678549;84;21139;-59
2022/03/21 02:25:35;;;;;;;20.82;11.43;;;;;;;1.45;43.92;101914.10;1676545;84;21025;-59
2022/03/21 02:28:08;;;;;;;18.60;11.18;;;;;;;1.50;43.83;101912.56;1676403;84;21539;-61
2022/03/21 02:30:46;;;;;;;18.62;10.63;;;;;;;1.45;44.08;101915.39;1666729;84;22276;-57
2022/03/21 02:33:15;;;;;;;21.73;11.88;;;;;;;1.32;44.43;101905.39;1675974;84;21269;-57
2022/03/21 02:35:48;;;;;;;19.50;11.83;;;;;;;1.35;44.60;101905.69;1676165;85;21037;-62
2022/03/21 02:38:15;;;;;;;17.32;10.10;;;;;;;1.87;44.34;101900.25;1676903;84;22477;-59
2022/03/21 02:40:44;;;;;;;16.77;10.23;;;;;;;1.49;44.95;101899.81;1675491;84;21028;-60
2022/03/21 02:43:11;;;;;;;15.58;9.88;;;;;;;1.62;44.62;101891.32;1676590;85;22425;-58
2022/03/21 02:45:40;;;;;;;19.15;10.55;;;;;;;1.52;44.84;101894.51;1676407;85;21093;-59
2022/03/21 02:48:13;;;;;;;19.62;10.40;;;;;;;1.57;44.72;101886.08;1675762;84;21022;-59
2022/03/21 02:50:49;;;;;;;18.75;10.90;;;;;;;1.57;44.63;101887.36;1667480;85;21029;-59
2022/03/21 02:53:17;;;;;;;19.67;10.72;;;;;;;1.84;44.51;101883.25;1676347;84;21068;-57
2022/03/21 02:55:44;;;;;;;17.17;10.55;;;;;;;2.54;43.03;101879.64;1676180;85;21026;-60
2022/03/21 02:58:12;;;;;;;19.07;11.33;;;;;;;2.68;42.73;101891.21;1680386;84;21226;-58
2022/03/21 03:00:40;;;;;;;24.57;14.23;;;;;;;1.75;43.98;101889.38;1676320;83;21598;-58
2022/03/21 03:03:07;;;;;;;27.10;15.75;;;;;;;1.72;44.47;101890.37;1677027;84;21207;-58
2022/03/21 03:05:35;;;;;;;26.70;15.48;;;;;;;1.76;44.44;101889.73;1676716;85;21044;-58
2022/03/21 03:08:03;;;;;;;23.42;13.55;;;;;;;1.61;45.24;101888.39;1676795;84;21212;-57
2022/03/21 03:10:31;;;;;;;21.60;12.13;;;;;;;1.70;45.68;101894.32;1676033;85;21892;-57
2022/03/21 03:12:59;;;;;;;21.55;12.60;;;;;;;1.88;45.97;101892.44;1676105;84;21700;-57
2022/03/21 03:15:27;;;;;;;18.37;10.53;;;;;;;2.04;45.76;101882.11;1676756;85;20955;-60
2022/03/21 03:17:56;;;;;;;18.45;10.63;;;;;;;2.28;45.78;101885.03;1676881;84;22267;-58
2022/03/21 03:20:24;;;;;;;18.95;11.12;;;;;;;3.20;44.91;101882.53;1677019;85;21002;-57
2022/03/21 03:22:52;;;;;;;22.05;11.20;;;;;;;3.09;44.93;101881.44;1676167;84;21995;-59
2022/03/21 03:25:19;;;;;;;18.55;11.10;;;;;;;3.09;44.93;101881.44;1675621;84;21063;-61
2022/03/21 03:27:47;;;;;;;18.17;10.55;;;;;;;2.98;46.05;101882.55;1676499;84;21555;-57
2022/03/21 03:30:14;;;;;;;21.15;12.23;;;;;;;3.36;45.56;101876.31;1676898;84;21059;-57
2022/03/21 03:32:44;;;;;;;21.37;11.68;;;;;;;3.90;46.08;101873.73;1673032;85;21585;-57
2022/03/21 03:35:11;;;;;;;19.67;10.78;;;;;;;3.90;46.08;101873.73;1676253;85;21314;-61
2022/03/21 03:37:39;;;;;;;19.32;11.57;;;;;;;4.20;45.90;101867.92;1663696;85;22550;-59
2022/03/21 03:40:08;;;;;;;19.57;12.07;;;;;;;4.20;45.90;101867.92;1676591;84;21037;-58
2022/03/21 03:42:36;;;;;;;19.00;11.53;;;;;;;4.94;45.18;101870.22;1666736;85;21107;-58
2022/03/21 03:45:05;;;;;;;18.92;11.68;;;;;;;5.02;44.84;101866.63;1676615;84;21063;-61
2022/03/21 03:47:32;;;;;;;19.25;10.63;;;;;;;5.66;43.64;101865.92;1671002;85;22503;-58
2022/03/21 03:50:02;;;;;;;18.12;10.28;;;;;;;6.08;43.33;101861.97;1672746;85;21225;-57
2022/03/21 03:52:29;;;;;;;16.30;10.48;;;;;;;6.51;42.35;101863.91;1693636;83;20957;-57
2022/03/21 03:54:57;;;;;;;16.48;10.53;;;;;;;7.06;41.64;101855.75;1696640;84;20893;-59
2022/03/21 03:57:25;;;;;;;17.50;10.82;;;;;;;7.64;40.41;101854.63;1700053;83;21517;-60
2022/03/21 03:59:53;;;;;;;16.57;11.22;;;;;;;8.16;39.46;101843.38;1697414;83;21238;-57
2022/03/21 04:02:21;;;;;;;16.07;10.75;;;;;;;8.61;38.57;101843.08;1680391;83;21052;-57
2022/03/21 04:04:50;;;;;;;15.95;11.55;;;;;;;9.24;37.62;101835.00;1694805;84;20975;-59
2022/03/21 04:07:19;;;;;;;15.72;11.63;;;;;;;9.40;37.21;101837.91;1701392;82;21109;-58
2022/03/21 04:09:46;;;;;;;17.45;12.58;;;;;;;9.67;36.66;101831.20;1718390;80;20980;-57
2022/03/21 04:12:14;;;;;;;15.05;11.22;;;;;;;10.76;34.99;101828.95;1733016;81;21642;-59
2022/03/21 04:14:46;;;;;;;17.15;12.33;;;;;;;11.18;34.27;101839.70;1756011;81;20971;-57
2022/03/21 04:17:13;;;;;;;18.32;11.90;;;;;;;11.40;33.63;101835.81;1756681;80;21561;-57
2022/03/21 04:19:40;;;;;;;16.00;11.05;;;;;;;11.19;33.84;101836.94;1743721;80;21097;-61
2022/03/21 04:22:07;;;;;;;16.55;12.35;;;;;;;11.05;34.09;101833.52;1764401;80;21114;-57
2022/03/21 04:24:36;;;;;;;16.97;11.63;;;;;;;11.96;32.96;101825.51;1749830;80;21547;-57
2022/03/21 04:27:04;;;;;;;16.97;12.43;;;;;;;12.47;32.40;101824.34;1702300;82;20916;-62
2022/03/21 04:29:31;;;;;;;16.57;12.03;;;;;;;12.97;31.64;101823.52;1729204;80;21568;-59
2022/03/21 04:31:59;;;;;;;17.67;13.60;;;;;;;13.56;31.13;101820.31;1748776;80;21580;-60
2022/03/21 04:34:26;;;;;;;15.23;11.07;;;;;;;14.24;29.98;101823.81;1761128;81;21958;-58
2022/03/21 04:36:54;;;;;;;15.40;12.17;;;;;;;14.69;29.41;101817.61;1754341;80;21922;-58
2022/03/21 04:39:22;;;;;;;16.03;11.50;;;;;;;15.38;28.63;101816.34;1737210;80;21066;-58
2022/03/21 04:41:51;;;;;;;12.23;10.53;;;;;;;15.38;28.63;101816.34;1723978;80;21583;-61
2022/03/21 04:44:18;;;;;;;13.43;11.13;;;;;;;15.56;28.06;101808.97;1756151;80;21747;-57
2022/03/21 04:46:47;;;;;;;12.83;10.77;;;;;;;15.86;27.94;101809.06;1747223;80;22287;-58
2022/03/21 04:49:14;;;;;;;16.83;12.20;;;;;;;16.39;27.26;101805.84;1760644;81;21322;-58
2022/03/21 04:51:41;;;;;;;14.27;11.80;;;;;;;17.36;26.27;101790.98;1750812;80;21050;-59
2022/03/21 04:54:08;;;;;;;12.33;11.03;;;;;;;18.13;25.35;101792.75;1760511;80;20991;-58
2022/03/21 04:56:36;;;;;;;15.23;11.27;;;;;;;17.62;25.39;101800.42;1708560;81;21066;-58
2022/03/21 04:59:04;;;;;;;13.70;11.33;;;;;;;18.20;24.90;101808.11;1746624;80;21003;-59
2022/03/21 05:01:33;;;;;;;13.37;11.07;;;;;;;18.21;25.02;101803.95;1747954;79;21249;-59
2022/03/21 05:04:00;;;;;;;13.07;10.67;;;;;;;19.05;24.47;101803.33;1746963;80;21249;-58
2022/03/21 05:06:28;;;;;;;13.20;11.70;;;;;;;19.20;24.09;101802.13;1729000;82;21093;-58
2022/03/21 05:08:55;;;;;;;14.33;11.37;;;;;;;19.43;23.62;101806.20;1729890;82;21000;-63
2022/03/21 05:11:24;;;;;;;14.33;11.33;;;;;;;19.43;23.42;101811.48;1729046;82;21449;-60
2022/03/21 05:13:51;;;;;;;13.37;11.40;;;;;;;19.07;23.25;101814.53;1730149;82;21249;-60
2022/03/21 05:16:19;;;;;;;17.37;15.10;;;;;;;18.81;23.07;101817.41;1728605;82;21141;-59
2022/03/21 05:18:47;;;;;;;17.60;14.57;;;;;;;17.45;24.03;101817.52;1730498;82;20932;-58
2022/03/21 05:21:14;;;;;;;23.10;18.40;;;;;;;16.98;24.45;101827.63;1728683;82;21580;-60
2022/03/21 05:31:59;;;;;;;20.00;15.70;;;;;;;13.50;28.68;101834.09;1728379;81;21768;-58
2022/03/21 05:37:13;;;;;;;20.40;17.03;;;;;;;13.01;29.01;101838.73;1728927;82;21400;-58
2022/03/21 05:42:29;;;;;;;24.70;19.33;;;;;;;12.15;29.46;101852.75;1729379;82;21212;-59
2022/03/21 05:44:56;;;;;;;23.07;17.33;;;;;;;11.55;30.44;101853.09;1729433;82;20948;-61
2022/03/21 05:47:24;;;;;;;21.02;15.25;;;;;;;11.43;30.75;101854.62;1756392;81;21352;-59
2022/03/21 05:49:51;;;;;;;21.07;15.63;;;;;;;11.12;31.40;101846.33;1743555;81;20995;-60
2022/03/21 05:52:18;;;;;;;19.82;14.85;;;;;;;11.07;31.62;101857.70;1729194;82;22467;-59
2022/03/21 05:54:45;;;;;;;22.15;15.95;;;;;;;11.14;32.00;101871.81;1729738;82;20948;-61
2022/03/21 05:57:14;;;;;;;20.12;15.30;;;;;;;10.99;31.88;101867.23;1729524;81;21185;-58
2022/03/21 06:02:20;;;;;;;22.50;15.93;;;;;;;11.06;32.64;101863.89;1709750;81;21141;-58
2022/03/21 06:04:49;;;;;;;20.32;15.78;;;;;;;11.29;32.49;101854.31;1727609;81;21255;-60
2022/03/21 06:07:17;;;;;;;22.02;15.28;;;;;;;11.25;32.68;101850.36;1724869;82;20972;-60
2022/03/21 06:09:45;;;;;;;18.45;15.15;;;;;;;11.36;32.71;101862.70;1730127;82;21501;-62
2022/03/21 06:12:13;;;;;;;18.77;14.70;;;;;;;11.59;32.43;101860.95;1728868;82;21048;-59
2022/03/21 06:14:41;;;;;;;18.70;14.55;;;;;;;11.97;32.57;101858.99;1729689;82;21004;-59
2022/03/21 06:17:08;;;;;;;23.03;15.53;;;;;;;12.18;32.08;101860.78;1729546;82;21283;-59
2022/03/21 06:19:37;;;;;;;19.57;14.97;;;;;;;12.49;31.69;101856.37;1710216;82;21581;-63
2022/03/21 06:22:05;;;;;;;23.77;17.30;;;;;;;13.05;31.43;101855.76;1750978;81;21192;-59
2022/03/21 06:24:33;;;;;;;17.60;13.33;;;;;;;13.14;31.50;101860.05;1747687;81;21694;-59
2022/03/21 06:27:00;;;;;;;11.87;9.10;;;;;;;14.39;30.35;101850.66;1740002;80;21495;-60
2022/03/21 06:29:28;;;;;;;11.87;8.33;;;;;;;15.50;28.74;101843.86;1723217;82;21646;-60
2022/03/21 06:31:55;;;;;;;12.50;8.93;;;;;;;16.26;27.79;101836.25;1727566;82;21805;-59
2022/03/21 06:34:25;;;;;;;12.23;8.37;;;;;;;17.45;26.69;101824.11;1723441;82;21095;-59
2022/03/21 06:36:54;;;;;;;;;;;;;;;18.11;25.74;101827.26;1722060;82;21579;-58
2022/03/21 06:39:21;;;;;;;10.60;8.23;;;;;;;18.18;25.78;101824.63;1723280;82;20119;-59
2022/03/21 06:41:51;;;;;;;10.83;8.97;;;;;;;19.38;24.85;101816.58;1725501;82;22479;-64
2022/03/21 06:44:17;;;;;;;12.53;9.03;;;;;;;19.65;24.41;101812.94;1723986;82;20849;-60
2022/03/21 06:46:44;;;;;;;16.07;9.80;;;;;;;20.08;23.88;101811.14;1726669;82;21009;-60
2022/03/21 06:49:13;;;;;;;13.60;9.20;;;;;;;20.67;23.15;101801.86;1724417;82;21079;-64
2022/03/21 06:51:42;;;;;;;13.00;8.63;;;;;;;21.69;22.19;101798.58;1723050;82;21004;-60
2022/03/21 06:54:10;;;;;;;11.37;8.30;;;;;;;21.68;21.95;101793.79;1724316;82;21211;-60
2022/03/21 06:56:37;;;;;;;11.67;7.70;;;;;;;21.79;21.53;101789.09;1721988;82;21102;-58
2022/03/21 06:59:05;;;;;;;11.97;8.07;;;;;;;21.94;21.66;101794.55;1724508;82;21102;-61
2022/03/21 07:01:36;;;;;;;10.73;8.57;;;;;;;23.33;20.41;101782.03;1724016;82;20980;-58
2022/03/21 07:04:04;;;;;;;11.30;8.90;;;;;;;23.68;20.03;101786.59;1723813;81;21550;-61
2022/03/21 07:06:33;;;;;;;11.23;9.37;;;;;;;23.68;20.25;101787.40;1719249;82;20975;-59
2022/03/21 07:09:01;;;;;;;11.93;9.07;;;;;;;23.41;20.36;101786.20;1723801;82;21048;-58
2022/03/21 07:11:29;;;;;;;10.73;8.70;;;;;;;23.76;19.87;101787.56;1717796;82;20923;-58
2022/03/21 07:13:57;;;;;;;10.40;8.87;;;;;;;23.99;19.69;101775.53;1720828;82;22079;-63
2022/03/21 07:16:25;;;;;;;11.50;9.00;;;;;;;24.13;19.37;101774.75;1721071;82;21063;-58
2022/03/21 07:18:53;;;;;;;10.27;8.00;;;;;;;24.20;19.26;101776.73;1716176;81;20997;-58
2022/03/21 07:21:22;;;;;;;12.73;8.63;;;;;;;24.72;19.13;101773.19;1710599;82;21058;-60
2022/03/21 07:23:49;;;;;;;10.77;9.20;;;;;;;25.47;18.48;101767.46;1709615;82;21343;-62
2022/03/21 07:26:17;;;;;;;12.37;8.87;;;;;;;25.61;18.10;101766.59;1710430;82;21008;-59
2022/03/21 07:28:44;;;;;;;12.53;8.73;;;;;;;25.89;17.87;101767.50;1710839;82;22208;-59
2022/03/21 07:31:11;;;;;;;10.10;8.00;;;;;;;26.06;17.68;101762.88;1717601;82;21243;-63
2022/03/21 07:33:39;;;;;;;22.23;17.10;;;;;;;26.18;17.49;101758.23;1730172;82;21079;-59
2022/03/21 07:36:07;;;;;;;38.83;33.03;;;;;;;26.25;17.33;101762.02;1727584;81;21062;-63
2022/03/21 07:38:35;;;;;;;12.60;11.13;;;;;;;27.02;16.72;101762.77;1748751;80;21473;-58
2022/03/21 07:41:07;;;;;;;13.63;11.90;;;;;;;26.49;16.82;101753.75;1743785;80;21520;-63
2022/03/21 07:43:37;;;;;;;12.10;10.13;;;;;;;26.73;16.91;101755.56;1730180;82;22520;-59
2022/03/21 07:48:51;;;;;;;14.90;13.07;;;;;;;26.50;16.84;101754.02;1739437;80;21016;-63
2022/03/21 07:51:18;;;;;;;21.03;18.80;;;;;;;26.60;17.05;101754.12;1737803;80;21351;-59
2022/03/21 07:53:46;;;;;;;12.40;11.00;;;;;;;26.76;16.90;101750.52;1726089;82;21014;-58
2022/03/21 07:56:14;;;;;;;10.80;9.70;;;;;;;26.85;16.80;101759.67;1725126;82;21411;-58
2022/03/21 07:58:42;;;;;;;14.93;12.10;;;;;;;26.74;16.67;101761.19;1724717;82;21017;-58
2022/03/21 08:01:10;;;;;;;17.77;12.57;;;;;;;26.51;16.88;101759.11;1725578;82;21020;-60
2022/03/21 08:03:37;;;;;;;10.37;8.53;;;;;;;26.31;17.08;101758.34;1723370;82;21599;-59
2022/03/21 08:06:08;;;;;;;10.30;8.13;;;;;;;26.31;16.69;101762.36;1730824;82;20975;-64
2022/03/21 08:08:33;;;;;;;14.73;11.40;;;;;;;25.68;17.00;101761.05;1729762;82;21225;-60
2022/03/21 08:11:01;;;;;;;9.83;8.83;;;;;;;25.58;17.35;101759.59;1730349;82;21079;-59
2022/03/21 08:13:30;;;;;;;10.93;8.67;;;;;;;26.01;17.26;101754.81;1727877;82;21105;-60
2022/03/21 08:15:59;;;;;;;9.87;8.53;;;;;;;26.14;16.88;101757.65;1723021;81;21047;-59
2022/03/21 08:18:27;;;;;;;12.43;9.27;;;;;;;25.93;16.67;101752.05;1735794;81;20960;-59
2022/03/21 08:20:57;;;;;;;11.33;9.13;;;;;;;24.95;17.72;101754.89;1730029;82;21046;-58
2022/03/21 08:23:25;;;;;;;9.60;7.83;;;;;;;25.50;17.58;101746.67;1728643;82;21033;-60
2022/03/21 08:25:52;;;;;;;9.67;7.20;;;;;;;25.70;17.58;101742.39;1730449;82;21450;-64
2022/03/21 08:28:20;;;;;;;8.57;7.00;;;;;;;26.02;16.78;101747.07;1728794;82;20992;-59
2022/03/21 08:30:47;;;;;;;8.17;6.80;;;;;;;25.84;16.62;101752.22;1730639;82;21060;-58
2022/03/21 08:33:15;;;;;;;10.17;6.93;;;;;;;25.36;16.71;101741.67;1729028;82;21346;-60
2022/03/21 08:35:42;;;;;;;10.93;7.60;;;;;;;25.14;17.09;101745.62;1729763;82;21067;-58
2022/03/21 08:38:10;;;;;;;15.53;8.17;;;;;;;24.96;17.48;101736.50;1728770;82;21043;-60
2022/03/21 08:40:39;;;;;;;8.80;6.97;;;;;;;24.09;18.22;101742.13;1720549;82;20990;-59
2022/03/21 08:43:07;;;;;;;11.57;7.60;;;;;;;24.28;18.42;101733.74;1729540;82;21039;-60
2022/03/21 08:45:35;;;;;;;10.93;7.87;;;;;;;25.02;17.78;101728.87;1729618;81;21179;-59
2022/03/21 08:48:04;;;;;;;9.30;6.87;;;;;;;24.85;17.52;101727.55;1729224;82;20999;-59
2022/03/21 08:50:34;;;;;;;10.63;7.77;;;;;;;24.02;18.07;101724.45;1743838;81;21874;-58
2022/03/21 08:53:02;;;;;;;14.63;10.00;;;;;;;23.93;18.62;101727.19;1758253;80;20999;-61
2022/03/21 08:55:30;;;;;;;10.17;7.50;;;;;;;24.20;18.45;101722.63;1743255;82;21042;-61
2022/03/21 08:57:58;;;;;;;8.63;5.83;;;;;;;24.56;18.42;101720.12;1729948;82;21642;-59
2022/03/21 09:00:26;;;;;;;9.27;5.47;;;;;;;24.84;18.09;101721.91;1729618;82;21113;-60
2022/03/21 09:02:54;;;;;;;12.57;6.30;;;;;;;25.11;18.13;101718.61;1732734;82;21513;-59
2022/03/21 09:05:22;;;;;;;8.87;6.13;;;;;;;24.91;18.05;101716.42;1735140;82;21016;-58
2022/03/21 09:07:50;;;;;;;8.57;5.47;;;;;;;25.46;17.95;101710.31;1733719;82;20946;-63
2022/03/21 09:10:19;;;;;;;8.00;5.80;;;;;;;24.74;18.34;101711.91;1733055;82;21348;-59
2022/03/21 09:12:48;;;;;;;10.63;5.57;;;;;;;24.72;18.70;101709.99;1734165;82;21533;-61
2022/03/21 09:15:16;;;;;;;8.17;5.77;;;;;;;24.63;18.36;101706.12;1733042;82;20940;-59
2022/03/21 09:17:45;;;;;;;10.33;6.27;;;;;;;24.17;19.05;101701.30;1740297;81;20944;-64
2022/03/21 09:20:14;;;;;;;9.23;4.60;;;;;;;24.03;19.32;101700.76;1732707;82;22061;-61
2022/03/21 09:22:41;;;;;;;9.07;5.07;;;;;;;24.40;19.08;101692.41;1734484;82;21150;-62
2022/03/21 09:25:09;;;;;;;8.27;4.70;;;;;;;24.13;19.48;101697.48;1733593;82;21528;-61
2022/03/21 09:27:41;;;;;;;14.27;6.07;;;;;;;24.11;19.48;101690.77;1723567;82;21012;-59
2022/03/21 09:30:07;;;;;;;15.07;6.50;;;;;;;23.94;19.85;101682.22;1749049;81;21215;-59
2022/03/21 09:32:35;;;;;;;9.30;6.17;;;;;;;23.76;20.14;101680.53;1751836;81;21093;-59
2022/03/21 09:35:02;;;;;;;16.53;5.43;;;;;;;24.06;20.07;101684.03;1763993;80;22432;-63
2022/03/21 09:37:29;;;;;;;8.50;4.37;;;;;;;24.20;19.85;101682.14;1748907;81;21009;-60
2022/03/21 09:39:56;;;;;;;10.00;4.47;;;;;;;24.26;19.74;101674.53;1761631;81;21121;-64
2022/03/21 09:42:25;;;;;;;9.23;3.90;;;;;;;23.75;20.19;101679.42;1749370;81;21098;-60
2022/03/21 09:44:55;;;;;;;6.47;3.67;;;;;;;23.44;20.54;101672.11;1749630;81;21053;-60
2022/03/21 09:50:15;;;;;;;8.50;4.43;;;;;;;22.95;21.00;101673.42;1749533;81;21129;-61
2022/03/21 09:52:43;;;;;;;7.03;4.07;;;;;;;22.55;21.81;101673.52;1749734;81;21953;-59
2022/03/21 09:55:10;;;;;;;9.70;5.40;;;;;;;22.88;21.56;101672.69;1761173;81;20998;-61
2022/03/21 09:57:38;;;;;;;7.67;3.80;;;;;;;22.80;21.87;101678.63;1750119;80;21047;-61
2022/03/21 10:00:07;;;;;;;9.93;4.13;;;;;;;22.77;21.78;101679.63;1746886;80;21325;-65
2022/03/21 10:02:41;;;;;;;10.93;4.83;;;;;;;22.16;22.33;101676.73;1743330;80;22270;-60
2022/03/21 10:05:29;;;;;;;10.70;4.57;;;;;;;22.36;22.26;101662.67;1746936;79;21010;-60
2022/03/21 10:08:27;;;;;;;8.13;3.70;;;;;;;22.03;22.72;101677.19;1752124;80;21590;-60
2022/03/21 10:11:03;;;;;;;17.83;4.17;;;;;;;21.80;23.22;101673.09;1756240;80;20939;-60
2022/03/21 10:13:34;;;;;;;10.93;4.35;;;;;;;21.79;23.42;101663.00;1743489;81;21231;-58
2022/03/21 10:16:12;;;;;;;9.70;3.80;;;;;;;22.14;23.35;101662.89;1720952;81;21050;-61
2022/03/21 10:19:02;;;;;;;8.50;3.60;;;;;;;21.79;23.59;101674.14;1743407;81;21000;-64
2022/03/21 10:21:30;;;;;;;12.00;3.70;;;;;;;21.47;23.95;101661.02;1657725;84;21848;-60
2022/03/21 10:24:06;;;;;;;12.30;4.17;;;;;;;21.41;24.50;101669.06;1649384;85;21064;-61
2022/03/21 10:26:36;;;;;;;11.43;3.23;;;;;;;21.35;24.45;101650.33;1686751;84;21758;-65
2022/03/21 10:29:10;;;;;;;9.30;3.83;;;;;;;21.46;24.48;101650.11;1685092;84;21185;-60
2022/03/21 10:31:48;;;;;;;8.07;3.40;;;;;;;21.39;24.71;101641.41;1682099;84;21063;-60
2022/03/21 10:34:20;;;;;;;9.00;3.13;;;;;;;21.34;24.91;101638.62;1680854;84;21053;-62
2022/03/21 10:37:10;;;;;;;8.13;3.80;;;;;;;21.44;24.78;101626.99;1683173;84;21781;-61
2022/03/21 10:39:43;;;;;;;9.80;4.13;;;;;;;21.44;24.98;101632.30;1675806;84;21201;-61
2022/03/21 10:42:10;;;;;;;8.07;3.43;;;;;;;21.67;24.75;101634.27;1678782;84;21454;-60
2022/03/21 10:44:38;;;;;;;7.17;3.93;;;;;;;21.67;24.84;101644.05;1682233;84;21399;-59
2022/03/21 10:47:07;;;;;;;8.70;3.70;;;;;;;21.41;25.19;101635.91;1684145;84;21504;-60
2022/03/21 10:49:44;;;;;;;7.33;3.80;;;;;;;21.61;24.96;101642.59;1680334;85;21042;-61
2022/03/21 10:52:17;;;;;;;14.30;6.20;;;;;;;21.38;25.16;101638.48;1682113;84;22527;-60
2022/03/21 10:54:49;;;;;;;10.07;5.97;;;;;;;21.51;25.23;101632.20;1682868;84;21089;-60
2022/03/21 10:57:37;;;;;;;7.87;4.30;;;;;;;21.76;25.22;101631.59;1682140;84;21018;-59
2022/03/21 11:00:23;;;;;;;6.97;3.13;;;;;;;22.04;24.95;101623.03;1682287;84;20924;-59
2022/03/21 11:02:58;;;;;;;9.70;3.83;;;;;;;22.24;24.54;101617.48;1639018;86;21057;-59
2022/03/21 11:05:28;;;;;;;9.07;4.07;;;;;;;22.22;24.87;101630.70;1671245;84;21208;-59
2022/03/21 11:07:55;;;;;;;7.57;3.73;;;;;;;22.19;24.91;101617.86;1681084;84;21061;-61
2022/03/21 11:10:24;;;;;;;7.07;2.97;;;;;;;22.34;24.83;101620.37;1682283;84;22504;-59
2022/03/21 11:12:56;;;;;;;10.73;4.47;;;;;;;22.32;24.59;101619.81;1682836;84;21493;-62
2022/03/21 11:15:25;;;;;;;7.13;3.70;;;;;;;22.22;24.82;101613.44;1680122;83;21030;-58
2022/03/21 11:17:55;;;;;;;7.33;3.37;;;;;;;22.33;24.81;101613.45;1684827;84;21504;-59
2022/03/21 11:20:22;;;;;;;6.67;2.90;;;;;;;22.18;24.72;101606.95;1680881;84;21039;-58
2022/03/21 11:22:49;;;;;;;11.37;4.37;;;;;;;21.93;25.06;101609.20;1681895;84;21011;-62
2022/03/21 11:25:17;;;;;;;6.53;3.50;;;;;;;22.21;25.17;101598.02;1676958;85;21504;-59
2022/03/21 11:28:28;;;;;;;9.97;3.43;;;;;;;22.06;25.13;101607.70;1680795;84;22035;-59
2022/03/21 11:31:17;;;;;;;11.20;4.27;;;;;;;21.85;25.66;101597.05;1658873;85;21276;-59
2022/03/21 11:34:14;;;;;;;8.30;3.90;;;;;;;22.26;25.21;101589.36;1618535;88;21560;-59
2022/03/21 11:36:55;;;;;;;7.33;3.70;;;;;;;22.09;25.16;101591.32;1615359;88;21008;-59
2022/03/21 11:39:23;;;;;;;9.23;3.60;;;;;;;22.29;25.38;101591.05;1634017;86;21015;-62
2022/03/21 11:42:09;;;;;;;8.40;4.20;;;;;;;22.93;24.71;101592.56;1634774;86;21069;-64
2022/03/21 11:44:37;;;;;;;14.27;5.60;;;;;;;22.46;24.75;101583.20;1612337;87;21312;-59
2022/03/21 11:47:26;;;;;;;11.30;5.50;;;;;;;21.57;26.08;101592.33;1619172;87;21672;-63
2022/03/21 11:49:53;;;;;;;8.90;4.60;;;;;;;21.95;26.15;101596.52;1612451;87;21146;-59
2022/03/21 11:52:22;;;;;;;7.20;3.50;;;;;;;21.58;25.95;101591.28;1621164;87;21103;-60